Time;durP1;ratioP1;P1;durP2;ratioP2;P2;SDS_P1;SDS_P2;PMS_P1;PMS_P2;Temp;Humidity;BMP_temperature;BMP_pressure;BME280_temperature;BME280_humidity;BME280_pressure;Samples;Min_cycle;Max_cycle;Signal;HPM_P1;HPM_P2
2021/09/23 00:01:55;;;;;;;10.15;5.32;;;;;;;10.66;86.94;97341.19;5017637;28;20042;-60
2021/09/23 00:04:43;;;;;;;9.27;5.30;;;;;;;10.72;86.65;97337.06;5022150;28;20111;-62
2021/09/23 00:07:28;;;;;;;9.05;4.95;;;;;;;10.52;87.75;97336.94;5012193;28;20473;-62
2021/09/23 00:10:18;;;;;;;17.38;5.47;;;;;;;10.42;88.60;97345.66;5010785;28;20049;-62
2021/09/23 00:13:04;;;;;;;10.27;5.25;;;;;;;10.29;89.46;97339.41;5017421;28;20047;-62
2021/09/23 00:15:51;;;;;;;8.18;5.40;;;;;;;10.34;89.12;97330.19;5036893;28;20044;-63
2021/09/23 00:18:36;;;;;;;11.95;4.93;;;;;;;10.52;88.21;97325.19;5018527;28;20057;-62
2021/09/23 00:21:22;;;;;;;9.43;5.63;;;;;;;10.48;88.54;97329.78;5015693;28;20609;-62
2021/09/23 00:24:08;;;;;;;10.70;5.28;;;;;;;10.42;89.33;97326.50;4993467;28;20045;-60
2021/09/23 00:26:53;;;;;;;8.07;5.18;;;;;;;10.35;89.13;97320.81;4997412;28;20454;-62
2021/09/23 00:29:39;;;;;;;8.65;5.20;;;;;;;10.27;89.63;97325.28;4997958;28;20077;-61
2021/09/23 00:32:25;;;;;;;8.50;4.88;;;;;;;10.25;89.76;97324.06;5015576;23;20568;-64
2021/09/23 00:35:11;;;;;;;9.02;5.32;;;;;;;10.23;90.10;97316.19;5010874;28;20034;-64
2021/09/23 00:37:57;;;;;;;9.27;5.05;;;;;;;10.18;90.32;97321.91;5014722;28;20044;-64
2021/09/23 00:40:43;;;;;;;12.50;5.22;;;;;;;10.12;90.90;97323.31;4995208;28;20050;-64
2021/09/23 00:43:28;;;;;;;8.23;4.80;;;;;;;10.15;90.88;97319.84;5006787;28;20064;-63
2021/09/23 00:46:14;;;;;;;12.15;5.63;;;;;;;10.17;91.10;97314.03;4995160;28;20117;-67
2021/09/23 00:49:00;;;;;;;10.88;4.85;;;;;;;10.05;91.35;97306.69;4995937;28;20084;-65
2021/09/23 00:51:46;;;;;;;10.23;4.80;;;;;;;9.97;92.03;97307.63;5007291;28;20449;-65
2021/09/23 00:54:31;;;;;;;7.95;5.13;;;;;;;9.90;92.56;97303.53;5014908;28;20034;-65
2021/09/23 00:57:18;;;;;;;7.22;4.20;;;;;;;9.91;92.29;97298.88;5011628;28;20048;-65
2021/09/23 01:00:10;;;;;;;7.53;4.57;;;;;;;9.80;92.67;97298.56;5012343;28;20114;-64
2021/09/23 01:02:56;;;;;;;6.85;4.50;;;;;;;9.71;92.94;97300.63;5017683;28;20175;-64
2021/09/23 01:05:42;;;;;;;9.43;4.32;;;;;;;9.58;92.90;97299.88;5018012;28;20037;-64
2021/09/23 01:08:28;;;;;;;8.10;4.38;;;;;;;9.43;94.59;97297.84;5013954;28;20044;-64
2021/09/23 01:11:13;;;;;;;12.43;4.18;;;;;;;9.27;94.91;97295.00;5009906;28;20049;-65
2021/09/23 01:13:59;;;;;;;9.60;4.55;;;;;;;9.12;96.82;97296.50;5017147;28;20056;-64
2021/09/23 01:16:45;;;;;;;8.90;4.45;;;;;;;9.06;97.02;97292.41;5030358;28;20041;-64
2021/09/23 01:19:32;;;;;;;8.05;4.78;;;;;;;9.03;97.76;97287.63;5018399;28;20052;-66
2021/09/23 01:22:18;;;;;;;9.13;4.53;;;;;;;9.11;97.19;97282.06;5011867;28;20045;-64
2021/09/23 01:25:05;;;;;;;14.00;6.47;;;;;;;9.15;97.48;97276.69;5014644;28;20085;-65
2021/09/23 01:27:51;;;;;;;10.52;5.30;;;;;;;9.30;96.46;97267.00;5017549;28;20490;-65
2021/09/23 01:30:37;;;;;;;11.48;5.55;;;;;;;9.22;96.95;97267.91;4994034;28;20630;-65
2021/09/23 01:33:23;;;;;;;8.77;5.28;;;;;;;9.25;96.74;97273.47;4999488;28;20780;-66
2021/09/23 01:36:08;;;;;;;14.00;6.55;;;;;;;9.23;96.91;97275.75;4995802;28;20045;-64
2021/09/23 01:38:54;;;;;;;11.60;6.00;;;;;;;9.40;96.52;97274.72;5015571;28;20522;-65
2021/09/23 01:41:40;;;;;;;10.02;5.78;;;;;;;9.36;96.21;97274.63;5015297;28;20053;-64
2021/09/23 01:44:26;;;;;;;9.90;6.05;;;;;;;9.54;95.24;97266.94;5009933;28;20055;-64
2021/09/23 01:47:12;;;;;;;10.38;5.82;;;;;;;9.74;94.23;97270.66;5006404;28;20081;-64
2021/09/23 01:49:58;;;;;;;10.82;5.47;;;;;;;9.82;93.63;97262.66;5015676;28;20045;-64
2021/09/23 01:52:44;;;;;;;10.50;5.65;;;;;;;9.68;94.59;97258.34;5014185;28;20517;-65
2021/09/23 01:55:29;;;;;;;10.07;5.85;;;;;;;9.61;94.92;97254.63;5010070;28;20045;-65
2021/09/23 01:58:15;;;;;;;12.40;6.22;;;;;;;9.56;95.44;97259.19;5000150;28;20033;-65
2021/09/23 02:01:01;;;;;;;13.23;5.32;;;;;;;9.51;95.23;97256.69;5010441;28;20045;-64
2021/09/23 02:03:47;;;;;;;10.05;5.60;;;;;;;9.41;96.13;97261.84;5005414;28;20081;-65
2021/09/23 02:06:33;;;;;;;11.02;5.10;;;;;;;9.48;95.46;97254.66;5005428;28;20477;-66
2021/09/23 02:09:19;;;;;;;8.85;5.53;;;;;;;9.37;95.94;97257.06;5001473;28;20048;-66
2021/09/23 02:12:05;;;;;;;11.57;5.40;;;;;;;9.41;95.78;97250.91;5010010;28;20230;-65
2021/09/23 02:14:51;;;;;;;11.48;5.65;;;;;;;9.35;95.73;97253.09;5011741;28;20048;-66
2021/09/23 02:17:37;;;;;;;12.20;6.20;;;;;;;9.55;94.83;97243.91;5008289;28;20042;-64
2021/09/23 02:20:22;;;;;;;10.25;5.90;;;;;;;9.64;94.52;97230.09;5009508;28;20573;-65
2021/09/23 02:23:09;;;;;;;9.73;5.50;;;;;;;9.67;94.14;97236.81;4996055;28;20045;-65
2021/09/23 02:25:54;;;;;;;13.68;5.82;;;;;;;9.75;93.39;97242.13;5010724;28;20245;-65
2021/09/23 02:28:40;;;;;;;10.10;5.97;;;;;;;9.82;93.07;97246.22;5014112;28;20071;-65
2021/09/23 02:31:26;;;;;;;11.43;6.25;;;;;;;9.81;93.05;97239.94;5008800;28;20049;-65
2021/09/23 02:34:12;;;;;;;14.40;8.40;;;;;;;9.63;93.76;97236.69;4999107;28;20048;-63
2021/09/23 02:36:58;;;;;;;11.32;5.60;;;;;;;9.66;94.11;97233.28;4996786;28;20647;-64
2021/09/23 02:39:44;;;;;;;12.35;5.85;;;;;;;9.66;93.74;97227.03;5011919;28;20160;-63
2021/09/23 02:42:30;;;;;;;10.48;5.90;;;;;;;9.65;93.80;97226.25;5005001;28;20041;-64
2021/09/23 02:45:16;;;;;;;14.18;6.18;;;;;;;9.56;94.16;97220.09;5003064;28;20053;-64
2021/09/23 02:48:02;;;;;;;10.98;5.75;;;;;;;9.49;94.45;97219.88;5016308;28;20069;-66
2021/09/23 02:50:47;;;;;;;12.43;6.18;;;;;;;9.42;95.56;97219.69;5000895;28;20047;-64
2021/09/23 02:53:33;;;;;;;11.30;6.15;;;;;;;9.40;95.01;97217.31;5003722;28;20045;-64
2021/09/23 02:56:19;;;;;;;10.90;5.57;;;;;;;9.44;95.43;97217.41;5004561;28;20065;-64
2021/09/23 02:59:05;;;;;;;15.13;6.32;;;;;;;9.45;94.91;97217.03;5004393;28;20069;-64
2021/09/23 03:01:51;;;;;;;10.18;6.10;;;;;;;9.44;95.09;97215.47;5006759;28;20052;-65
2021/09/23 03:04:36;;;;;;;11.20;6.32;;;;;;;9.42;94.90;97222.41;5005504;28;20454;-64
2021/09/23 03:07:22;;;;;;;9.05;5.28;;;;;;;9.49;94.58;97225.34;5000083;28;20602;-65
2021/09/23 03:10:08;;;;;;;9.43;5.75;;;;;;;9.40;95.28;97221.97;4994280;28;20061;-65
2021/09/23 03:12:54;;;;;;;11.85;5.88;;;;;;;9.42;95.03;97227.88;5014072;28;20583;-66
2021/09/23 03:15:40;;;;;;;13.38;7.68;;;;;;;9.36;95.69;97233.63;5013519;28;20632;-65
2021/09/23 03:18:25;;;;;;;13.43;7.20;;;;;;;9.39;96.22;97229.38;5001439;28;20061;-69
2021/09/23 03:21:12;;;;;;;8.90;5.50;;;;;;;9.15;95.69;97227.50;4997085;28;20034;-63
2021/09/23 03:23:58;;;;;;;9.40;5.15;;;;;;;8.96;96.81;97236.28;5010723;28;20072;-65
2021/09/23 03:26:44;;;;;;;8.60;5.22;;;;;;;8.85;97.08;97232.44;5004557;28;20049;-64
2021/09/23 03:29:30;;;;;;;9.55;5.63;;;;;;;8.73;97.74;97234.03;5000772;28;20137;-63
2021/09/23 03:32:15;;;;;;;11.30;6.45;;;;;;;8.76;99.46;97227.06;4991199;28;20648;-64
2021/09/23 03:35:01;;;;;;;12.55;6.20;;;;;;;8.66;99.33;97227.53;5005591;28;20042;-64
2021/09/23 03:37:49;;;;;;;9.18;5.50;;;;;;;8.61;99.24;97225.81;5000941;28;20160;-64
2021/09/23 03:40:35;;;;;;;11.70;5.70;;;;;;;8.54;98.43;97217.41;5002006;28;20562;-64
2021/09/23 03:43:20;;;;;;;8.90;4.75;;;;;;;8.46;97.21;97221.81;5001023;28;20528;-64
2021/09/23 03:46:06;;;;;;;17.90;8.40;;;;;;;8.33;97.58;97231.09;4999034;28;20042;-65
2021/09/23 03:48:52;;;;;;;11.02;6.25;;;;;;;8.16;97.69;97224.72;5013049;28;20406;-66
2021/09/23 03:51:38;;;;;;;11.38;5.93;;;;;;;7.90;98.79;97224.97;5008712;28;20492;-64
2021/09/23 03:54:23;;;;;;;10.00;4.70;;;;;;;7.82;100.00;97225.88;5010362;28;20057;-65
2021/09/23 03:57:09;;;;;;;31.58;14.57;;;;;;;7.86;100.00;97224.06;5001191;28;20558;-62
2021/09/23 03:59:55;;;;;;;40.60;17.05;;;;;;;7.82;100.00;97234.03;5007067;28;20072;-64
2021/09/23 04:02:41;;;;;;;14.13;7.40;;;;;;;7.85;100.00;97238.84;5010566;28;20073;-63
2021/09/23 04:05:26;;;;;;;10.38;5.97;;;;;;;7.62;100.00;97238.41;5011863;28;20046;-63
2021/09/23 04:08:12;;;;;;;11.75;4.97;;;;;;;7.21;100.00;97248.94;5001398;28;20120;-63
2021/09/23 04:10:58;;;;;;;9.98;5.57;;;;;;;7.11;100.00;97237.66;5015074;28;20037;-64
2021/09/23 04:13:44;;;;;;;13.75;6.65;;;;;;;7.11;100.00;97235.72;5003959;28;20045;-64
2021/09/23 04:16:29;;;;;;;11.00;5.75;;;;;;;7.10;100.00;97231.41;5012894;28;20444;-64
2021/09/23 04:19:15;;;;;;;10.15;5.28;;;;;;;7.27;100.00;97233.19;5011976;28;20091;-64
2021/09/23 04:22:01;;;;;;;10.18;6.15;;;;;;;7.30;100.00;97221.66;5011484;28;20049;-63
2021/09/23 04:24:47;;;;;;;12.32;6.00;;;;;;;7.24;100.00;97226.50;5012972;28;20053;-64
2021/09/23 04:27:32;;;;;;;23.63;9.85;;;;;;;7.03;100.00;97214.78;5006009;28;20052;-64
2021/09/23 04:30:18;;;;;;;17.08;8.60;;;;;;;6.80;100.00;97215.09;5007959;28;20049;-64
2021/09/23 04:33:04;;;;;;;17.20;7.50;;;;;;;6.84;100.00;97215.22;4987781;28;20104;-64
2021/09/23 04:35:50;;;;;;;22.63;10.25;;;;;;;6.81;100.00;97213.19;5014359;28;20112;-64
2021/09/23 04:38:36;;;;;;;23.50;11.23;;;;;;;6.87;100.00;97214.56;5012653;28;20077;-64
2021/09/23 04:41:22;;;;;;;21.92;9.73;;;;;;;6.75;100.00;97220.72;5017181;28;20451;-64
2021/09/23 04:44:07;;;;;;;11.93;6.47;;;;;;;6.44;100.00;97204.69;5005345;28;20045;-63
2021/09/23 04:46:54;;;;;;;11.05;6.20;;;;;;;6.51;100.00;97199.56;5005187;28;20088;-64
2021/09/23 04:49:40;;;;;;;10.80;5.90;;;;;;;6.64;100.00;97209.41;4996119;28;20076;-64
2021/09/23 04:52:26;;;;;;;23.88;12.05;;;;;;;6.61;100.00;97203.81;4993894;28;20041;-64
2021/09/23 04:55:12;;;;;;;26.15;10.45;;;;;;;6.51;100.00;97207.72;4997341;28;20073;-63
2021/09/23 04:57:59;;;;;;;11.38;6.82;;;;;;;6.41;100.00;97214.34;5012251;28;20073;-64
2021/09/23 05:00:45;;;;;;;12.00;6.97;;;;;;;6.22;100.00;97227.53;5014222;28;20037;-65
2021/09/23 05:03:31;;;;;;;11.98;6.00;;;;;;;6.09;100.00;97218.44;5009823;28;20048;-65
2021/09/23 05:06:17;;;;;;;9.63;6.00;;;;;;;6.13;100.00;97219.38;5010911;28;20067;-65
2021/09/23 05:09:03;;;;;;;12.38;7.35;;;;;;;6.05;100.00;97218.28;5010438;28;20663;-63
2021/09/23 05:11:48;;;;;;;12.70;7.28;;;;;;;5.96;100.00;97222.97;5015151;28;20049;-64
2021/09/23 05:14:34;;;;;;;13.38;6.68;;;;;;;5.71;100.00;97238.16;5009397;28;20073;-65
2021/09/23 05:17:20;;;;;;;14.52;7.60;;;;;;;5.73;100.00;97247.56;5003096;28;20496;-64
2021/09/23 05:20:08;;;;;;;15.32;7.50;;;;;;;5.91;100.00;97242.91;5010996;28;20095;-65
2021/09/23 05:22:53;;;;;;;18.23;8.60;;;;;;;6.18;100.00;97232.03;4996366;28;20050;-65
2021/09/23 05:25:39;;;;;;;12.85;7.57;;;;;;;6.12;100.00;97226.75;5003037;28;20132;-65
2021/09/23 05:28:25;;;;;;;12.85;7.25;;;;;;;6.06;100.00;97221.81;4990246;28;20061;-66
2021/09/23 05:31:10;;;;;;;19.83;8.73;;;;;;;6.30;100.00;97221.22;5004753;28;20052;-66
2021/09/23 05:33:57;;;;;;;27.00;7.93;;;;;;;6.68;100.00;97221.25;5013019;28;20514;-65
2021/09/23 05:36:42;;;;;;;15.82;7.05;;;;;;;6.83;100.00;97219.88;5010617;28;20874;-65
2021/09/23 05:39:28;;;;;;;18.92;7.20;;;;;;;6.96;100.00;97219.97;4996586;28;20049;-65
2021/09/23 05:42:14;;;;;;;13.65;6.88;;;;;;;6.95;100.00;97226.53;5006607;28;20115;-65
2021/09/23 05:45:00;;;;;;;10.80;5.97;;;;;;;7.16;100.00;97226.56;5010815;28;20669;-65
2021/09/23 05:47:46;;;;;;;9.27;5.35;;;;;;;7.24;100.00;97218.34;5011546;28;20449;-64
2021/09/23 05:50:32;;;;;;;8.90;5.47;;;;;;;7.27;100.00;97214.13;5010800;28;20075;-64
2021/09/23 05:53:18;;;;;;;12.90;6.40;;;;;;;7.42;100.00;97208.09;5003334;28;20049;-63
2021/09/23 05:56:04;;;;;;;12.85;6.20;;;;;;;7.62;100.00;97211.94;5002070;28;20045;-64
2021/09/23 05:58:50;;;;;;;12.38;6.63;;;;;;;7.76;100.00;97205.38;5014406;28;20107;-65
2021/09/23 06:01:35;;;;;;;13.45;6.60;;;;;;;7.85;100.00;97211.56;5012617;28;20043;-65
2021/09/23 06:04:22;;;;;;;11.20;6.43;;;;;;;7.93;98.93;97209.88;5000702;28;20048;-65
2021/09/23 06:07:08;;;;;;;11.07;5.40;;;;;;;7.82;97.74;97210.28;5003426;28;20666;-64
2021/09/23 06:09:53;;;;;;;13.15;5.80;;;;;;;7.87;97.80;97211.22;5011921;28;20045;-65
2021/09/23 06:12:39;;;;;;;10.30;5.90;;;;;;;7.95;97.48;97210.34;5012251;28;20046;-64
2021/09/23 06:15:25;;;;;;;10.80;6.55;;;;;;;8.10;97.86;97209.69;5002199;28;20049;-65
2021/09/23 06:18:11;;;;;;;19.33;10.10;;;;;;;8.35;97.06;97198.81;5007387;28;20044;-64
2021/09/23 06:20:57;;;;;;;12.15;6.93;;;;;;;8.18;99.29;97214.25;5009722;28;20033;-63
2021/09/23 06:23:43;;;;;;;14.25;7.07;;;;;;;8.34;99.17;97205.41;5007112;28;20053;-64
2021/09/23 06:26:28;;;;;;;10.93;6.88;;;;;;;8.32;98.90;97202.22;5009523;28;20041;-64
2021/09/23 06:29:14;;;;;;;15.75;7.78;;;;;;;8.03;100.00;97199.34;5009450;28;20045;-66
2021/09/23 06:32:00;;;;;;;12.02;7.05;;;;;;;7.68;100.00;97201.59;5015393;28;20048;-65
2021/09/23 06:34:46;;;;;;;17.38;8.00;;;;;;;7.56;100.00;97196.09;5005984;28;20054;-65
2021/09/23 06:37:32;;;;;;;15.48;7.38;;;;;;;7.65;100.00;97205.00;5007054;28;20056;-63
2021/09/23 06:40:18;;;;;;;18.60;8.85;;;;;;;7.77;100.00;97201.53;5005243;28;20051;-64
2021/09/23 06:43:04;;;;;;;12.10;7.50;;;;;;;7.80;100.00;97203.59;4997992;28;20177;-64
2021/09/23 06:45:49;;;;;;;17.23;8.68;;;;;;;7.90;100.00;97211.34;5004471;28;20042;-65
2021/09/23 06:48:35;;;;;;;12.10;8.00;;;;;;;7.90;100.00;97208.59;5000328;28;20044;-65
2021/09/23 06:51:21;;;;;;;13.95;8.60;;;;;;;8.19;100.00;97210.41;5003477;28;20111;-65
2021/09/23 06:54:08;;;;;;;17.65;9.95;;;;;;;8.42;100.00;97212.72;5001136;28;20547;-64
2021/09/23 06:56:53;;;;;;;18.23;9.07;;;;;;;8.79;100.00;97219.00;5007804;28;20046;-64
2021/09/23 06:59:39;;;;;;;17.15;8.63;;;;;;;9.06;100.00;97213.97;5008291;28;20046;-65
2021/09/23 07:02:25;;;;;;;16.02;8.68;;;;;;;9.35;99.30;97209.34;5003197;28;20060;-64
2021/09/23 07:05:11;;;;;;;14.50;7.82;;;;;;;9.43;98.72;97207.63;5003078;28;20042;-63
2021/09/23 07:07:56;;;;;;;15.10;8.43;;;;;;;9.60;98.87;97198.31;5003561;28;20038;-64
2021/09/23 07:10:43;;;;;;;15.63;8.65;;;;;;;9.86;97.04;97203.34;5007096;28;20049;-65
2021/09/23 07:13:30;;;;;;;16.42;9.18;;;;;;;10.10;95.45;97199.66;5009554;28;20053;-65
2021/09/23 07:16:16;;;;;;;14.02;8.68;;;;;;;10.01;96.24;97199.03;4994864;28;20038;-65
2021/09/23 07:19:02;;;;;;;14.30;8.20;;;;;;;10.24;94.58;97208.25;5009524;28;20077;-65
2021/09/23 07:21:49;;;;;;;14.00;7.53;;;;;;;10.46;93.00;97201.44;5008236;28;20076;-65
2021/09/23 07:24:35;;;;;;;15.02;8.68;;;;;;;10.44;93.41;97208.38;5010754;28;20049;-66
2021/09/23 07:27:21;;;;;;;15.60;9.00;;;;;;;10.73;92.43;97214.56;5007059;28;20177;-65
2021/09/23 07:30:07;;;;;;;14.40;8.10;;;;;;;10.94;91.52;97208.81;5003057;28;20057;-65
2021/09/23 07:32:53;;;;;;;16.10;9.57;;;;;;;10.99;91.14;97209.31;5011872;28;20052;-64
2021/09/23 07:35:39;;;;;;;16.58;7.80;;;;;;;11.18;90.74;97210.50;5005272;28;20038;-64
2021/09/23 07:38:25;;;;;;;15.35;9.23;;;;;;;11.18;91.02;97203.09;5002815;28;20053;-65
2021/09/23 07:41:11;;;;;;;15.98;8.20;;;;;;;11.40;90.57;97190.63;5012241;28;20092;-65
2021/09/23 07:43:56;;;;;;;16.55;8.50;;;;;;;11.47;90.88;97190.78;5018148;28;20048;-64
2021/09/23 07:46:42;;;;;;;14.73;8.48;;;;;;;11.47;91.38;97199.00;5013830;28;20132;-65
2021/09/23 07:49:28;;;;;;;15.73;9.25;;;;;;;11.41;92.79;97200.44;4996780;28;20053;-63
2021/09/23 07:52:14;;;;;;;19.45;9.77;;;;;;;11.57;91.84;97205.06;5006733;28;20041;-66
2021/09/23 07:55:00;;;;;;;16.30;9.65;;;;;;;11.54;92.02;97208.53;5014955;28;20071;-67
2021/09/23 07:57:46;;;;;;;18.05;9.15;;;;;;;11.52;92.82;97203.41;5013502;28;20037;-66
2021/09/23 08:00:32;;;;;;;15.15;8.23;;;;;;;11.68;92.97;97200.59;5009981;28;20046;-66
2021/09/23 08:03:18;;;;;;;15.43;8.85;;;;;;;11.89;90.40;97202.19;5012505;28;20040;-63
2021/09/23 08:06:04;;;;;;;15.48;7.80;;;;;;;11.92;90.93;97188.56;4983437;28;20041;-67
2021/09/23 08:08:50;;;;;;;16.73;8.52;;;;;;;11.74;92.71;97185.44;5026637;28;20042;-65
2021/09/23 08:11:36;;;;;;;15.82;8.98;;;;;;;11.59;93.84;97195.31;5012745;28;20114;-64
2021/09/23 08:14:22;;;;;;;16.63;8.93;;;;;;;11.55;94.55;97194.44;5005315;28;20624;-63
2021/09/23 08:17:08;;;;;;;16.95;8.77;;;;;;;11.97;92.56;97201.16;5007721;28;20072;-63
2021/09/23 08:19:54;;;;;;;15.43;8.77;;;;;;;11.99;92.89;97199.66;5009569;28;20751;-63
2021/09/23 08:22:40;;;;;;;14.68;7.45;;;;;;;12.18;91.72;97211.75;5013646;28;20655;-65
2021/09/23 08:25:26;;;;;;;14.80;8.00;;;;;;;12.35;90.26;97216.78;5007195;28;20129;-63
2021/09/23 08:28:12;;;;;;;16.65;9.65;;;;;;;12.67;89.37;97221.25;5006300;28;20108;-65
2021/09/23 08:30:59;;;;;;;13.93;8.35;;;;;;;12.97;87.95;97222.09;5013618;28;20048;-64
2021/09/23 08:33:45;;;;;;;14.63;8.80;;;;;;;13.23;84.86;97225.22;5006515;28;20041;-63
2021/09/23 08:36:33;;;;;;;14.38;8.65;;;;;;;13.36;84.60;97223.88;4994663;28;20118;-65
2021/09/23 08:39:18;;;;;;;15.15;9.35;;;;;;;13.25;83.68;97239.41;4994998;28;20042;-63
2021/09/23 08:42:04;;;;;;;13.20;8.93;;;;;;;13.52;82.73;97249.25;4998177;28;20519;-68
2021/09/23 08:44:50;;;;;;;15.52;9.00;;;;;;;13.79;81.33;97238.19;5006471;28;20049;-65
2021/09/23 09:02:27;;;;;;;14.57;8.98;;;;;;;14.12;80.40;97253.16;5001998;28;20034;-64
2021/09/23 09:05:18;;;;;;;18.23;10.40;;;;;;;14.15;80.42;97250.44;5008197;28;20053;-65
2021/09/23 09:08:13;;;;;;;14.18;9.00;;;;;;;14.25;80.85;97250.91;5012250;28;20099;-66
2021/09/23 09:11:04;;;;;;;15.95;8.93;;;;;;;14.44;79.72;97253.47;5006416;28;20049;-64
2021/09/23 09:13:52;;;;;;;16.67;8.57;;;;;;;14.48;78.90;97242.50;5008303;28;20138;-64
2021/09/23 09:16:40;;;;;;;15.05;8.60;;;;;;;14.56;80.61;97246.09;5002239;28;20137;-63
2021/09/23 09:19:41;;;;;;;14.15;8.45;;;;;;;14.47;79.93;97252.69;5005268;28;20052;-64
2021/09/23 09:22:29;;;;;;;16.25;8.95;;;;;;;14.69;79.55;97244.66;5010879;28;20168;-64
2021/09/23 09:25:15;;;;;;;15.85;9.68;;;;;;;14.18;79.87;97243.34;5007227;28;20733;-64
2021/09/23 09:28:06;;;;;;;17.92;10.00;;;;;;;14.03;80.92;97249.91;4996590;28;22347;-64
2021/09/23 09:31:00;;;;;;;19.15;10.38;;;;;;;14.18;80.33;97253.59;5001653;28;20184;-64
2021/09/23 09:33:49;;;;;;;17.67;10.65;;;;;;;14.54;78.21;97263.81;5011950;28;20140;-65
2021/09/23 09:36:49;;;;;;;17.88;10.15;;;;;;;14.51;78.98;97258.25;5001045;28;20045;-65
2021/09/23 09:39:34;;;;;;;;;;;;;;;14.48;79.71;97254.31;5012086;28;20128;-64
2021/09/23 09:42:20;;;;;;;19.15;11.65;;;;;;;14.69;77.89;97253.75;4994406;28;19928;-65
2021/09/23 09:45:06;;;;;;;18.95;9.80;;;;;;;14.89;77.53;97259.81;5007397;28;20556;-65
2021/09/23 09:47:54;;;;;;;19.65;10.15;;;;;;;14.89;77.59;97257.06;5006516;28;20069;-64
2021/09/23 09:50:44;;;;;;;17.60;10.25;;;;;;;14.79;77.32;97252.25;4992386;28;20041;-64
2021/09/23 09:53:30;;;;;;;18.50;10.57;;;;;;;14.91;76.33;97254.72;5011635;28;20433;-65
2021/09/23 09:56:22;;;;;;;17.02;10.27;;;;;;;14.87;75.46;97259.41;4987892;28;20068;-64
2021/09/23 09:59:11;;;;;;;17.27;9.63;;;;;;;14.97;74.81;97265.41;5007318;28;20045;-65
2021/09/23 10:01:58;;;;;;;15.95;9.70;;;;;;;15.14;74.54;97267.47;5002934;28;20423;-65
2021/09/23 10:04:45;;;;;;;17.45;10.07;;;;;;;15.53;73.82;97272.50;5007595;28;20083;-66
2021/09/23 10:07:35;;;;;;;17.08;10.15;;;;;;;15.19;73.91;97269.88;5010379;28;20057;-65
2021/09/23 10:10:26;;;;;;;18.73;10.50;;;;;;;14.72;76.39;97252.97;5006777;28;20053;-64
2021/09/23 10:13:15;;;;;;;19.15;10.15;;;;;;;14.57;77.09;97242.97;4998856;28;20038;-64
2021/09/23 10:16:01;;;;;;;18.10;9.47;;;;;;;15.29;75.41;97247.09;5006152;28;20061;-64
2021/09/23 10:18:47;;;;;;;16.45;10.18;;;;;;;15.16;75.01;97248.59;5004560;28;20302;-63
2021/09/23 10:21:34;;;;;;;18.55;9.82;;;;;;;15.32;73.68;97240.00;4993548;28;20549;-64
2021/09/23 10:24:20;;;;;;;17.10;10.70;;;;;;;14.77;77.39;97237.28;5004951;28;20052;-64
2021/09/23 10:27:57;;;;;;;18.35;10.93;;;;;;;15.01;76.06;97225.63;5005365;28;20064;-64
2021/09/23 10:30:14;;;;;;;17.88;10.38;;;;;;;14.91;76.63;97229.91;5004411;28;20107;-64
2021/09/23 10:33:02;;;;;;;21.27;10.60;;;;;;;15.37;74.45;97230.59;5005321;28;20088;-64
2021/09/23 10:35:49;;;;;;;17.48;10.40;;;;;;;15.81;73.04;97232.41;5000373;28;20044;-64
2021/09/23 10:38:36;;;;;;;18.17;9.60;;;;;;;15.48;74.35;97228.69;4995333;28;20592;-65
2021/09/23 10:41:22;;;;;;;19.38;11.20;;;;;;;15.54;73.42;97229.09;4990902;28;20500;-65
2021/09/23 10:44:08;;;;;;;19.90;11.63;;;;;;;15.57;73.83;97220.84;4991989;28;20105;-64
2021/09/23 10:46:55;;;;;;;19.15;10.98;;;;;;;15.53;74.57;97217.28;5004875;28;20072;-63
2021/09/23 10:49:42;;;;;;;19.73;11.60;;;;;;;15.72;72.06;97213.44;4999949;28;20101;-64
2021/09/23 10:52:31;;;;;;;23.38;12.20;;;;;;;15.29;73.58;97208.47;4996145;28;20132;-65
2021/09/23 10:55:19;;;;;;;20.97;11.80;;;;;;;15.61;73.08;97194.06;5005326;28;20065;-64
2021/09/23 10:58:07;;;;;;;21.70;11.45;;;;;;;15.76;72.67;97183.88;4992686;28;20128;-63
2021/09/23 11:00:52;;;;;;;19.30;10.80;;;;;;;16.31;70.15;97193.88;4999133;28;20050;-64
2021/09/23 11:03:39;;;;;;;21.75;13.05;;;;;;;15.73;71.05;97194.88;4996781;28;20049;-64
2021/09/23 11:06:40;;;;;;;17.60;11.00;;;;;;;15.72;72.49;97198.81;4999085;28;20200;-64
2021/09/23 11:09:27;;;;;;;19.27;11.68;;;;;;;15.96;71.08;97183.56;5006001;28;20150;-64
2021/09/23 11:12:14;;;;;;;20.58;10.82;;;;;;;16.52;68.98;97193.13;5011576;28;20049;-65
2021/09/23 11:15:00;;;;;;;19.90;11.98;;;;;;;16.87;66.39;97196.31;5011465;28;20042;-65
2021/09/23 11:17:47;;;;;;;20.95;11.25;;;;;;;17.54;64.25;97183.53;5014688;28;20048;-64
2021/09/23 11:20:34;;;;;;;18.58;10.82;;;;;;;17.65;64.00;97175.19;5009422;28;20333;-65
2021/09/23 11:23:22;;;;;;;17.17;10.57;;;;;;;17.82;64.79;97174.31;5006809;28;20052;-66
2021/09/23 11:26:09;;;;;;;18.00;10.63;;;;;;;18.47;62.13;97166.41;5026273;28;20118;-65
2021/09/23 11:28:56;;;;;;;22.00;12.07;;;;;;;19.34;59.05;97151.78;5019470;28;20083;-64
2021/09/23 11:31:50;;;;;;;18.40;11.05;;;;;;;18.62;60.37;97152.44;5015044;28;20123;-65
2021/09/23 11:34:38;;;;;;;16.55;10.35;;;;;;;18.94;58.81;97149.41;5021548;28;20136;-65
2021/09/23 11:37:32;;;;;;;17.33;10.95;;;;;;;19.57;57.64;97145.56;5006312;28;20479;-64
2021/09/23 11:40:31;;;;;;;17.27;10.82;;;;;;;20.16;54.66;97145.19;4996751;28;20041;-64
2021/09/23 11:43:21;;;;;;;14.97;9.47;;;;;;;19.94;56.59;97141.94;4992274;28;20041;-65
2021/09/23 11:46:07;;;;;;;15.73;10.20;;;;;;;19.86;56.98;97140.44;4992272;28;20088;-63
2021/09/23 11:48:52;;;;;;;17.65;11.40;;;;;;;19.95;55.94;97137.16;4998770;28;20069;-64
2021/09/23 11:51:38;;;;;;;16.90;10.25;;;;;;;20.07;56.10;97127.47;4997766;28;20378;-65
2021/09/23 11:54:24;;;;;;;17.08;11.38;;;;;;;19.42;57.90;97133.84;5000683;28;20157;-63
2021/09/23 11:57:26;;;;;;;18.38;11.77;;;;;;;19.53;57.52;97128.16;5004234;28;20030;-64
2021/09/23 12:00:12;;;;;;;17.70;11.35;;;;;;;19.59;57.28;97124.50;5010610;28;20445;-64
2021/09/23 12:02:58;;;;;;;18.63;11.52;;;;;;;19.59;57.73;97120.91;5017805;28;20049;-65
2021/09/23 12:05:45;;;;;;;18.35;11.27;;;;;;;19.81;56.66;97115.91;5001622;28;20052;-64
2021/09/23 12:08:31;;;;;;;17.90;11.10;;;;;;;19.25;58.60;97114.19;5015707;28;20049;-64
2021/09/23 12:11:16;;;;;;;18.75;11.20;;;;;;;18.30;61.90;97115.44;4994000;28;20077;-64
2021/09/23 12:14:07;;;;;;;18.33;11.57;;;;;;;18.17;63.02;97105.25;4999082;28;20046;-62
2021/09/23 12:17:09;;;;;;;19.48;11.60;;;;;;;18.56;61.70;97104.16;5000029;28;20384;-63
2021/09/23 12:19:56;;;;;;;17.30;11.25;;;;;;;18.33;64.05;97095.22;4998644;28;20045;-63
2021/09/23 12:22:42;;;;;;;17.80;10.55;;;;;;;18.69;63.63;97089.38;4997565;28;20077;-63
2021/09/23 12:25:28;;;;;;;18.45;11.65;;;;;;;18.97;60.95;97081.19;5004954;28;20045;-63
2021/09/23 12:28:14;;;;;;;19.83;12.38;;;;;;;18.66;62.41;97081.06;5013245;28;20080;-63
2021/09/23 12:31:05;;;;;;;18.40;11.15;;;;;;;18.91;62.29;97073.31;5003018;28;20076;-65
2021/09/23 12:33:54;;;;;;;19.73;11.55;;;;;;;18.71;62.31;97073.09;5018782;28;20060;-65
2021/09/23 12:36:42;;;;;;;16.73;10.80;;;;;;;18.66;63.15;97079.09;5017479;28;20691;-65
2021/09/23 12:39:47;;;;;;;18.42;11.05;;;;;;;18.84;62.37;97072.59;5014328;28;20049;-64
2021/09/23 12:42:35;;;;;;;17.60;10.35;;;;;;;18.97;62.22;97067.31;5015822;28;20037;-64
2021/09/23 12:45:21;;;;;;;18.60;11.65;;;;;;;18.97;61.89;97061.75;5012621;28;20111;-64
2021/09/23 12:48:15;;;;;;;17.08;11.07;;;;;;;18.90;62.61;97057.84;5011733;28;20041;-64
2021/09/23 12:51:00;;;;;;;18.63;11.75;;;;;;;18.79;62.57;97065.47;5017573;28;20051;-65
2021/09/23 12:53:46;;;;;;;17.85;10.60;;;;;;;18.90;62.54;97063.41;5016724;28;20730;-65
2021/09/23 12:56:31;;;;;;;20.48;11.50;;;;;;;18.77;62.36;97059.56;5017036;28;20053;-65
2021/09/23 12:59:18;;;;;;;18.15;11.00;;;;;;;18.86;63.21;97053.56;5012498;28;20611;-62
2021/09/23 13:02:09;;;;;;;18.95;10.35;;;;;;;19.01;63.31;97052.19;5011665;28;20103;-65
2021/09/23 13:05:16;;;;;;;17.45;11.00;;;;;;;19.18;61.28;97039.31;5016070;28;20037;-63
2021/09/23 13:08:17;;;;;;;18.20;10.65;;;;;;;19.08;62.61;97029.88;5013444;28;20136;-64
2021/09/23 13:11:07;;;;;;;17.50;11.02;;;;;;;19.03;62.65;97030.38;4996259;28;20858;-63
2021/09/23 13:13:53;;;;;;;17.80;11.02;;;;;;;19.05;62.36;97019.63;4996580;28;20049;-64